Flight Track Log - Related Links

Times and Time Zones

All times are in EDT time to prevent confusion due to time zone crossing. See the N498QS flight status page for this flight to view local times or setup timezone preferences in your user account.

Time Position Orientation Groundspeed Altitude Reporting Facility
EDT Latitude Longitude Course Direction KTS MPH feet Rate Location/Type
Sun 07:26:23 PM 43.5667 -71.4500 244° Southwest 184 212 2,100  Level KA90
Sun 07:27:40 PM 43.5347 -71.5408 244° Southwest 207 238 5,900 2,847 Climbing Boston Center
Sun 07:28:40 PM 43.5167 -71.6156 252° West 225 259 8,600 2,500 Climbing Boston Center
Sun 07:29:40 PM 43.5089 -71.7303 265° West 262 302 10,900 1,900 Climbing Boston Center
Sun 07:30:40 PM 43.5033 -71.8447 266° West 314 361 12,400 1,900 Climbing Boston Center
Sun 07:31:40 PM 43.4956 -71.9794 265° West 341 392 14,700 2,200 Climbing Boston Center
Sun 07:32:40 PM 43.4878 -72.1225 266° West 365 420 16,800 1,950 Climbing Boston Center
Sun 07:33:40 PM 43.4797 -72.2683 266° West 385 443 18,600 1,700 Climbing Boston Center
Sun 07:34:40 PM 43.4694 -72.4228 265° West 391 450 20,200 1,700 Climbing Boston Center
Sun 07:35:40 PM 43.4589 -72.5831 265° West 411 473 22,000 1,773 Climbing Boston Center
Sun 07:36:52 PM 43.4461 -72.7747 265° West 424 488 24,100 1,545 Climbing Boston Center
Sun 07:37:52 PM 43.4350 -72.9433 265° West 430 495 25,400 1,200 Climbing Boston Center
Sun 07:38:52 PM 43.4194 -73.1289 263° West 443 510 26,500 1,100 Climbing Boston Center
Sun 07:39:52 PM 43.4078 -73.3089 265° West 458 527 27,600 1,100 Climbing Boston Center
Sun 07:40:52 PM 43.3917 -73.4886 263° West 470 541 28,700 1,250 Climbing Boston Center
Sun 07:41:52 PM 43.3775 -73.6742 264° West 481 554 30,100 1,300 Climbing Boston Center
Sun 07:42:52 PM 43.3650 -73.8394 264° West 486 559 31,300 1,350 Climbing Boston Center
Sun 07:43:52 PM 43.3503 -74.0219 264° West 491 565 32,800 1,600 Climbing Boston Center
Sun 07:44:52 PM 43.3392 -74.2072 265° West 491 565 34,500 1,800 Climbing Boston Center
Sun 07:45:52 PM 43.3239 -74.3836 263° West 486 559 36,400 1,800 Climbing Boston Center
Sun 07:46:52 PM 43.3081 -74.5631 263° West 481 554 38,100 1,600 Climbing Boston Center
Sun 07:47:52 PM 43.2942 -74.7364 264° West 475 547 39,600 950 Climbing Boston Center
Sun 07:48:52 PM 43.2781 -74.9128 263° West 475 547 40,000 200 Climbing Boston Center
Sun 07:49:52 PM 43.2594 -75.0917 262° West 475 547 40,000  Level Boston Center
Sun 07:50:52 PM 43.2361 -75.2844 261° West 489 563 40,000  Level Boston Center
Sun 07:51:52 PM 43.1897 -75.4644 251° West 508 585 40,000  Level Boston Center
Sun 07:54:12 PM 43.0883 -75.8919 252° West 479 551 40,000  Level Cleveland Center
Sun 07:55:12 PM 43.0453 -76.0656 251° West 490 564 40,000  Level Cleveland Center
Sun 07:56:12 PM 43.0019 -76.2419 251° West 490 564 40,000  Level Cleveland Center
Sun 07:57:12 PM 42.9603 -76.4153 252° West 490 564 40,000  Level Cleveland Center
Sun 07:58:12 PM 42.9167 -76.5939 252° West 490 564 40,000  Level Cleveland Center
Sun 07:59:12 PM 42.8744 -76.7667 252° West 490 564 40,000  Level Cleveland Center
Sun 08:00:12 PM 42.8428 -76.9444 256° West 490 564 40,000  Level Cleveland Center
Sun 08:01:12 PM 42.8150 -77.1272 258° West 490 564 40,000  Level Cleveland Center
Sun 08:02:12 PM 42.7867 -77.3042 258° West 490 564 40,000  Level Cleveland Center
Sun 08:03:12 PM 42.7603 -77.4808 259° West 485 558 40,000  Level Cleveland Center
Sun 08:04:12 PM 42.7256 -77.6636 256° West 485 558 40,000  Level Cleveland Center
Sun 08:05:12 PM 42.7047 -77.8311 260° West 493 567 40,000  Level Cleveland Center
Sun 08:06:12 PM 42.6733 -78.0047 256° West 488 562 40,000  Level Cleveland Center
Sun 08:07:12 PM 42.6436 -78.1783 257° West 482 555 40,000  Level Cleveland Center
Sun 08:08:12 PM 42.6139 -78.3544 257° West 482 555 40,000  Level Cleveland Center
Sun 08:09:12 PM 42.5836 -78.5303 257° West 482 555 40,000  Level Cleveland Center
Sun 08:10:12 PM 42.5556 -78.7058 258° West 477 549 40,000  Level Cleveland Center
Sun 08:11:12 PM 42.5228 -78.8789 256° West 477 549 40,000  Level Cleveland Center
Sun 08:12:12 PM 42.4919 -79.0569 257° West 477 549 40,000  Level Cleveland Center
Sun 08:13:12 PM 42.4547 -79.2522 256° West 477 549 40,000  Level Cleveland Center
Sun 08:14:12 PM 42.4233 -79.4300 257° West 483 556 40,000  Level Cleveland Center
Sun 08:15:12 PM 42.3914 -79.6106 257° West 483 556 40,000  Level Cleveland Center
Sun 08:16:12 PM 42.3575 -79.7908 256° West 489 563 40,000  Level Cleveland Center
Sun 08:17:12 PM 42.3231 -79.9681 255° West 489 563 40,000  Level Cleveland Center
Sun 08:18:12 PM 42.2947 -80.1311 257° West 489 563 40,000  Level Cleveland Center
Sun 08:19:12 PM 42.2619 -80.3111 256° West 489 563 40,000  Level Cleveland Center
Sun 08:20:12 PM 42.2247 -80.5047 256° West 489 563 40,000  Level Cleveland Center
Sun 08:21:12 PM 42.1892 -80.6814 255° West 489 563 40,000  Level Cleveland Center
Sun 08:22:12 PM 42.1556 -80.8578 256° West 489 563 40,000  Level Cleveland Center
Sun 08:23:12 PM 42.1217 -81.0394 256° West 494 568 40,000  Level Cleveland Center
Sun 08:24:12 PM 42.0875 -81.2097 255° West 487 560 40,000  Level Cleveland Center
Sun 08:25:12 PM 42.0508 -81.3886 255° West 487 560 40,000  Level Cleveland Center
Sun 08:26:12 PM 42.0161 -81.5642 255° West 487 560 40,000  Level Cleveland Center
Sun 08:27:12 PM 41.9814 -81.7339 255° West 487 560 40,000  Level Cleveland Center
Sun 08:28:12 PM 41.9461 -81.9092 255° West 487 560 40,000  Level Cleveland Center
Sun 08:29:12 PM 41.9128 -82.0758 255° West 482 555 40,000  Level Cleveland Center
Sun 08:30:12 PM 41.8728 -82.2422 252° West 475 547 40,000  Level Cleveland Center
Sun 08:31:12 PM 41.8369 -82.4169 255° West 475 547 40,000  Level Cleveland Center
Sun 08:32:12 PM 41.8006 -82.5914 254° West 475 547 40,000  Level Cleveland Center
Sun 08:33:12 PM 41.7642 -82.7628 254° West 475 547 40,000  Level Cleveland Center
Sun 08:34:12 PM 41.7319 -82.9147 254° West 475 547 40,000  Level Cleveland Center
Sun 08:35:12 PM 41.6950 -83.0889 254° West 475 547 40,000 -450 Level Cleveland Center
Sun 08:36:12 PM 41.6556 -83.2567 253° West 475 547 39,100 -1,150 Descending Cleveland Center
Sun 08:37:12 PM 41.6181 -83.4275 254° West 475 547 37,700 -1,450 Descending Cleveland Center
Sun 08:38:12 PM 41.5803 -83.6008 254° West 475 547 36,200 -3,850 Descending Cleveland Center
Sun 08:39:12 PM 41.5444 -83.7683 254° West 475 547 30,000 -1,302 Descending Cleveland Center
Sun 08:39:58 PM 41.5219 -83.8847 256° West 479 551 33,900 1,556 Climbing Chicago Center
Sun 08:41:00 PM 41.4775 -84.0781 253° West 460 529 32,800 -968 Descending Chicago Center
Sun 08:42:02 PM 41.4647 -84.2489 264° West 463 533 31,900 -823 Descending Chicago Center
Sun 08:43:04 PM 41.4714 -84.4231 273° West 470 541 31,100 -823 Descending Chicago Center
Sun 08:44:06 PM 41.4789 -84.5997 273° West 476 548 30,200 -532 Descending Chicago Center
Sun 08:45:08 PM 41.4850 -84.7725 273° West 471 542 30,000 -1,065 Descending Chicago Center
Sun 08:46:10 PM 41.4914 -84.9444 273° West 467 537 28,000 -2,613 Descending Chicago Center
Sun 08:47:12 PM 41.4983 -85.1411 273° West 446 513 24,600 -1,935 Descending Chicago Center
Sun 08:48:14 PM 41.5028 -85.3008 272° West 429 494 24,000 -290 Descending Chicago Center
Sun 08:49:16 PM 41.5061 -85.4692 272° West 437 503 24,000 -1,258 Level Chicago Center
Sun 08:50:18 PM 41.5131 -85.6317 273° West 433 498 21,400 -2,371 Descending Chicago Center
Sun 08:51:20 PM 41.5178 -85.7903 272° West 427 491 19,100 -1,984 Descending Chicago Center
Sun 08:52:22 PM 41.5219 -85.9375 272° West 404 465 17,300 -1,887 Descending Chicago Center
Sun 08:53:24 PM 41.5244 -86.0819 271° West 396 456 15,200 -1,968 Descending Chicago Center
Sun 08:54:27 PM 41.5236 -86.2200 270° West 380 437 13,200 -1,872 Descending Chicago Center
Sun 08:55:29 PM 41.5231 -86.3561 270° West 371 427 11,300 -1,452 Descending Chicago Center
Sun 08:56:31 PM 41.5219 -86.5114 270° West 354 407 10,200 -629 Descending Chicago Center
Sun 08:57:33 PM 41.5206 -86.6378 269° West 348 400 10,000 -387 Descending Chicago Center
Sun 08:58:35 PM 41.5203 -86.7589 270° West 333 383 9,400 -726 Descending Chicago Center
Sun 08:59:37 PM 41.5233 -86.8642 272° West 292 336 8,500 -960 Descending Chicago Center
Sun 09:00:40 PM 41.5189 -86.9906 267° West 286 329 7,400 -960 Descending Chicago Center
Sun 09:01:42 PM 41.5172 -87.0944 269° West 282 325 6,500 -1,113 Descending Chicago Center
Sun 09:02:44 PM 41.5217 -87.1967 273° West 279 321 5,100 -1,258 Descending Chicago Center
Sun 09:03:46 PM 41.5317 -87.2983 278° West 278 320 3,900 -532 Descending Chicago Center
Sun 09:04:48 PM 41.5414 -87.4019 277° West 282 325 4,000 48 Climbing Chicago Center
Sun 09:05:50 PM 41.5506 -87.5244 276° West 280 322 4,000  Level Chicago Center
Sun 09:06:52 PM 41.5603 -87.6269 277° West 280 322 4,000 -339 Level Chicago Center
Sun 09:07:54 PM 41.5697 -87.7281 277° West 280 322 3,300 -484 Descending Chicago Center
Sun 09:08:56 PM 41.5758 -87.8242 275° West 271 312 3,000 -145 Descending Chicago Center
Sun 09:09:58 PM 41.5886 -87.9167 280° West 233 268 3,000  Level Chicago Center
Sun 09:11:00 PM 41.6344 -87.9353 343° North 202 232 3,000  Level Chicago Center
Sun 09:12:02 PM 41.6744 -87.8961 36° Northeast 184 212 3,000 -194 Level Chicago Center
Sun 09:13:04 PM 41.7083 -87.8503 45° Northeast 179 206 2,600 -581 Descending Chicago Center
Sun 09:14:06 PM 41.7381 -87.8128 43° Northeast 164 189 1,800 -774 Descending Chicago Center
Sun 09:15:08 PM 41.7653 -87.7786 43° Northeast 146 168 1,000 -774 Descending Chicago Center

Login

Don't have an account? Register now (free) for customized features, flight alerts, and more!